Clear Creek Springs, Kentucky
Current Conditions -  °F | °C
As of 2:55 PM on Saturday 20 Dec 2014 (Local Time) from K1A6 Reporting Station
Overcast Overcast  
Wind Chill: 41°   Ceiling: 4600
Heat Index: 43°   Visibility: 10mi
Dew Point: 33°   Wind: 5mph
Humidity: 66%   Direction: 30°NNE
Pressure: 30.18"   Gusts: NA
Location:  36.7417°N, 83.6911°W
Report Text: K1A6 201955Z AUTO 03004KT 10SM OVC046 06/00 A3018 RMK AO2 T00630004
Loading
Personal Weather Stations






























Interactive Weather Map New forecast layout! Learn more

10-Day Weather Forecast

Advertisements
Track Severe Weather on mobile